Time;durP1;ratioP1;P1;durP2;ratioP2;P2;SDS_P1;SDS_P2;PMS_P1;PMS_P2;Temp;Humidity;BMP_temperature;BMP_pressure;BME280_temperature;BME280_humidity;BME280_pressure;Samples;Min_cycle;Max_cycle;Signal;HPM_P1;HPM_P2
2023/02/01 07:19:21;;;;;;;;;;;;;;;;;;1340121;23;20205;-92
2023/02/01 07:21:47;;;;;;;;;;;;;;;;;;4897882;29;19976;-94
2023/02/01 07:24:14;;;;;;;;;;;;;;;;;;4883597;29;19977;-88
2023/02/01 07:26:40;;;;;;;;;;;;;;;;;;4883313;29;20268;-91
2023/02/01 07:29:06;;;;;;;;;;;;;;;;;;4883369;29;19927;-90
2023/02/01 07:31:32;;;;;;;;;;;;;;;;;;4883400;29;19923;-92
2023/02/01 07:33:58;;;;;;;;;;;;;;;;;;4883551;29;19927;-91
2023/02/01 07:36:24;;;;;;;;;;;;;;;;;;4883913;29;19923;-88
2023/02/01 07:38:51;;;;;;;;;;;;;;;;;;4883576;29;20009;-89
2023/02/01 07:41:17;;;;;;;;;;;;;;;;;;4883582;29;19923;-90
2023/02/01 07:43:43;;;;;;;;;;;;;;;;;;4899567;29;19923;-91
2023/02/01 07:46:10;;;;;;;;;;;;;;;;;;4899889;29;19923;-92
2023/02/01 07:48:36;;;;;;;;;;;;;;;;;;4886883;29;20375;-92
2023/02/01 07:51:02;;;;;;;;;;;;;;;;;;4887131;29;19923;-91
2023/02/01 07:53:28;;;;;;;;;;;;;;;;;;4890595;29;19927;-92
2023/02/01 07:55:55;;;;;;;;;;;;;;;;;;4889875;29;20263;-92
2023/02/01 07:58:21;;;;;;;;;;;;;;;;;;4891013;29;19927;-92
2023/02/01 08:03:32;;;;;;;;;;;;;;;;;;4905744;29;19934;-90
2023/02/01 08:05:58;;;;;;;;;;;;;;;;;;4889397;29;19926;-88
2023/02/01 08:08:24;;;;;;;;;;;;;;;;;;4889107;29;19945;-86
2023/02/01 08:10:50;;;;;;;;;;;;;;;;;;4904645;29;20388;-88
2023/02/01 08:13:16;;;;;;;;;;;;;;;;;;4904718;29;19954;-88
2023/02/01 08:15:42;;;;;;;;;;;;;;;;;;4905087;29;20352;-88
2023/02/01 08:18:09;;;;;;;;;;;;;;;;;;4886523;29;20390;-89
2023/02/01 08:20:35;;;;;;;;;;;;;;;;;;4886029;29;19927;-88
2023/02/01 08:23:01;;;;;;;;;;;;;;;;;;4902301;29;19966;-88
2023/02/01 08:25:27;;;;;;;;;;;;;;;;;;4902423;29;19923;-91
2023/02/01 08:27:54;;;;;;;;;;;;;;;;;;4886616;29;19930;-88
2023/02/01 08:30:20;;;;;;;;;;;;;;;;;;4885940;29;19930;-90
2023/02/01 08:32:46;;;;;;;;;;;;;;;;;;4901494;29;19927;-88
2023/02/01 08:35:12;;;;;;;;;;;;;;;;;;4901556;29;19923;-88
2023/02/01 08:37:38;;;;;;;;;;;;;;;;;;4885678;29;19923;-88
2023/02/01 08:40:04;;;;;;;;;;;;;;;;;;4885744;29;19923;-89
2023/02/01 08:45:14;;;;;;;;;;;;;;;;;;4901448;29;19923;-90
2023/02/01 08:47:40;;;;;;;;;;;;;;;;;;4879799;29;20010;-89
2023/02/01 08:50:06;;;;;;;;;;;;;;;;;;4886380;29;19930;-89
2023/02/01 08:52:32;;;;;;;;;;;;;;;;;;4876207;29;19935;-90
2023/02/01 08:54:58;;;;;;;;;;;;;;;;;;4882825;29;19924;-89
2023/02/01 08:57:24;;;;;;;;;;;;;;;;;;4867122;29;19924;-90
2023/02/01 08:59:50;;;;;;;;;;;;;;;;;;4882490;29;19952;-90
2023/02/01 09:02:16;;;;;;;;;;;;;;;;;;4882430;29;19927;-90
2023/02/01 09:04:42;;;;;;;;;;;;;;;;;;4866705;29;19942;-89
2023/02/01 09:07:08;;;;;;;;;;;;;;;;;;4882548;29;19974;-90
2023/02/01 09:09:34;;;;;;;;;;;;;;;;;;4867128;29;19928;-89
2023/02/01 09:12:00;;;;;;;;;;;;;;;;;;4868055;29;20295;-94
2023/02/01 09:14:26;;;;;;;;;;;;;;;;;;4867510;29;19927;-91
2023/02/01 09:16:51;;;;;;;;;;;;;;;;;;4867252;29;19923;-91
2023/02/01 09:19:17;;;;;;;;;;;;;;;;;;4882560;29;19928;-93
2023/02/01 09:21:43;;;;;;;;;;;;;;;;;;4884360;29;19927;-90
2023/02/01 09:24:09;;;;;;;;;;;;;;;;;;4867247;29;19928;-92
2023/02/01 09:26:35;;;;;;;;;;;;;;;;;;4867637;29;19923;-92
2023/02/01 09:29:09;;;;;;;;;;;;;;;;;;4867677;29;19923;-92
2023/02/01 09:31:35;;;;;;;;;;;;;;;;;;4882331;29;19930;-92
2023/02/01 09:34:01;;;;;;;;;;;;;;;;;;4884421;29;19927;-92
2023/02/01 09:36:27;;;;;;;;;;;;;;;;;;4885694;29;19930;-92
2023/02/01 09:38:53;;;;;;;;;;;;;;;;;;4885292;29;19952;-92
2023/02/01 09:41:19;;;;;;;;;;;;;;;;;;4885581;29;20218;-93
2023/02/01 09:43:45;;;;;;;;;;;;;;;;;;4885499;29;20275;-92
2023/02/01 09:46:11;;;;;;;;;;;;;;;;;;4885085;29;20006;-93
2023/02/01 09:48:37;;;;;;;;;;;;;;;;;;4885264;29;19923;-89
2023/02/01 09:51:03;;;;;;;;;;;;;;;;;;4885333;29;20053;-94
2023/02/01 09:53:29;;;;;;;;;;;;;;;;;;4885991;29;19940;-91
2023/02/01 09:55:55;;;;;;;;;;;;;;;;;;4885511;29;20358;-92
2023/02/01 09:58:21;;;;;;;;;;;;;;;;;;4885087;29;20026;-93
2023/02/01 10:00:49;;;;;;;;;;;;;;;;;;4885229;29;19930;-93
2023/02/01 10:03:18;;;;;;;;;;;;;;;;;;4915763;29;19923;-92
2023/02/01 10:05:44;;;;;;;;;;;;;;;;;;4884892;29;19946;-92
2023/02/01 10:08:10;;;;;;;;;;;;;;;;;;4885924;29;19923;-91
2023/02/01 10:10:36;;;;;;;;;;;;;;;;;;4903776;29;19927;-93
2023/02/01 10:13:02;;;;;;;;;;;;;;;;;;4884028;29;19975;-93
2023/02/01 10:15:34;;;;;;;;;;;;;;;;;;4884842;29;19973;-93
2023/02/01 10:18:03;;;;;;;;;;;;;;;;;;4916218;29;20228;-94
2023/02/01 10:20:38;;;;;;;;;;;;;;;;;;4884615;29;20066;-95
2023/02/01 10:23:07;;;;;;;;;;;;;;;;;;4885012;29;20413;-94
2023/02/01 10:25:35;;;;;;;;;;;;;;;;;;4884546;29;19930;-94
2023/02/01 10:28:01;;;;;;;;;;;;;;;;;;4916495;29;19923;-93
2023/02/01 10:30:27;;;;;;;;;;;;;;;;;;4884963;29;19927;-93
2023/02/01 10:32:53;;;;;;;;;;;;;;;;;;4884603;29;19927;-91
2023/02/01 10:35:23;;;;;;;;;;;;;;;;;;4884773;29;19923;-92
2023/02/01 10:40:24;;;;;;;;;;;;;;;;;;5116360;23;19926;-91
2023/02/01 10:42:50;;;;;;;;;;;;;;;;;;4922318;29;20441;-93
2023/02/01 10:45:16;;;;;;;;;;;;;;;;;;4921732;29;19929;-94
2023/02/01 10:47:42;;;;;;;;;;;;;;;;;;4918126;29;19922;-91
2023/02/01 10:50:15;;;;;;;;;;;;;;;;;;4920050;29;19937;-94
2023/02/01 10:52:41;;;;;;;;;;;;;;;;;;4903998;29;19970;-92
2023/02/01 10:55:07;;;;;;;;;;;;;;;;;;4918605;29;19993;-89
2023/02/01 10:57:33;;;;;;;;;;;;;;;;;;4918263;29;19970;-89
2023/02/01 10:59:59;;;;;;;;;;;;;;;;;;4901925;29;19973;-92
2023/02/01 11:02:28;;;;;;;;;;;;;;;;;;4902878;29;19922;-95
2023/02/01 11:04:54;;;;;;;;;;;;;;;;;;4934113;29;19923;-94
2023/02/01 11:07:19;;;;;;;;;;;;;;;;;;4933779;29;19929;-92
2023/02/01 11:09:46;;;;;;;;;;;;;;;;;;4934540;29;20092;-94
2023/02/01 11:12:12;;;;;;;;;;;;;;;;;;4950346;29;19923;-93
2023/02/01 11:14:41;;;;;;;;;;;;;;;;;;4935387;29;19946;-95
2023/02/01 11:17:07;;;;;;;;;;;;;;;;;;4933616;29;20022;-92
2023/02/01 11:19:33;;;;;;;;;;;;;;;;;;4933678;29;20149;-93
2023/02/01 11:21:59;;;;;;;;;;;;;;;;;;4934121;29;19923;-93
2023/02/01 11:24:25;;;;;;;;;;;;;;;;;;4934337;29;19923;-94
2023/02/01 11:26:52;;;;;;;;;;;;;;;;;;4934561;29;20275;-89
2023/02/01 11:29:21;;;;;;;;;;;;;;;;;;4937120;29;19922;-90
2023/02/01 11:31:49;;;;;;;;;;;;;;;;;;4936962;29;19927;-91
2023/02/01 11:34:15;;;;;;;;;;;;;;;;;;4936919;29;19952;-90
2023/02/01 11:36:41;;;;;;;;;;;;;;;;;;4936985;29;19922;-88
2023/02/01 11:39:07;;;;;;;;;;;;;;;;;;4920920;29;19933;-89
2023/02/01 11:41:33;;;;;;;;;;;;;;;;;;4937337;29;19923;-90
2023/02/01 11:44:02;;;;;;;;;;;;;;;;;;4953106;29;19930;-88
2023/02/01 11:46:28;;;;;;;;;;;;;;;;;;4912937;29;20287;-90
2023/02/01 11:49:00;;;;;;;;;;;;;;;;;;4903776;29;19935;-95
2023/02/01 11:51:26;;;;;;;;;;;;;;;;;;4903156;29;19927;-92
2023/02/01 11:53:52;;;;;;;;;;;;;;;;;;4902631;29;20067;-91
2023/02/01 11:56:18;;;;;;;;;;;;;;;;;;4902780;29;20014;-92
2023/02/01 11:58:44;;;;;;;;;;;;;;;;;;4903211;29;20009;-92
2023/02/01 12:01:10;;;;;;;;;;;;;;;;;;4903268;29;20375;-92
2023/02/01 12:03:36;;;;;;;;;;;;;;;;;;4902882;29;19923;-89
2023/02/01 12:06:02;;;;;;;;;;;;;;;;;;4902942;29;19933;-93
2023/02/01 12:08:28;;;;;;;;;;;;;;;;;;4904669;29;20368;-91
2023/02/01 12:10:54;;;;;;;;;;;;;;;;;;4907465;29;19927;-93
2023/02/01 12:13:19;;;;;;;;;;;;;;;;;;4904112;29;19990;-91
2023/02/01 12:15:47;;;;;;;;;;;;;;;;;;4902147;29;19923;-90
2023/02/01 12:18:13;;;;;;;;;;;;;;;;;;4902245;29;19930;-92
2023/02/01 12:20:39;;;;;;;;;;;;;;;;;;4902398;29;19923;-91
2023/02/01 12:23:05;;;;;;;;;;;;;;;;;;4902585;29;19930;-93
2023/02/01 12:25:31;;;;;;;;;;;;;;;;;;4902122;29;20403;-90
2023/02/01 12:27:57;;;;;;;;;;;;;;;;;;4902152;29;19923;-94
2023/02/01 12:30:23;;;;;;;;;;;;;;;;;;4902277;29;20245;-91
2023/02/01 12:32:48;;;;;;;;;;;;;;;;;;4901609;29;20042;-90
2023/02/01 12:35:14;;;;;;;;;;;;;;;;;;4901725;29;19930;-90
2023/02/01 12:37:44;;;;;;;;;;;;;;;;;;4901456;29;19938;-90
2023/02/01 12:40:10;;;;;;;;;;;;;;;;;;4900193;29;19934;-90
2023/02/01 12:42:35;;;;;;;;;;;;;;;;;;4901779;29;19923;-91
2023/02/01 12:45:01;;;;;;;;;;;;;;;;;;4901686;29;20349;-90
2023/02/01 12:47:27;;;;;;;;;;;;;;;;;;4901296;29;19923;-91
2023/02/01 12:49:53;;;;;;;;;;;;;;;;;;4900902;29;19923;-90
2023/02/01 12:52:19;;;;;;;;;;;;;;;;;;4901081;29;19985;-91
2023/02/01 12:54:45;;;;;;;;;;;;;;;;;;4901535;29;19927;-91
2023/02/01 12:57:11;;;;;;;;;;;;;;;;;;4901188;29;20290;-91
2023/02/01 12:59:37;;;;;;;;;;;;;;;;;;4901688;29;20327;-91
2023/02/01 13:02:03;;;;;;;;;;;;;;;;;;4901577;29;19923;-91
2023/02/01 13:04:29;;;;;;;;;;;;;;;;;;4901231;29;20039;-90
2023/02/01 13:06:55;;;;;;;;;;;;;;;;;;4901046;29;19967;-91
2023/02/01 13:09:24;;;;;;;;;;;;;;;;;;4901150;29;19970;-90
2023/02/01 13:11:50;;;;;;;;;;;;;;;;;;4901504;29;20013;-91
2023/02/01 13:14:16;;;;;;;;;;;;;;;;;;4900748;29;19923;-93
2023/02/01 13:16:41;;;;;;;;;;;;;;;;;;4900825;29;19946;-91
2023/02/01 13:19:07;;;;;;;;;;;;;;;;;;4900621;29;19923;-91
2023/02/01 13:21:33;;;;;;;;;;;;;;;;;;4903829;29;19950;-91
2023/02/01 13:24:07;;;;;;;;;;;;;;;;;;4935162;29;19930;-92
2023/02/01 13:26:33;;;;;;;;;;;;;;;;;;4935599;29;19927;-91
2023/02/01 13:28:59;;;;;;;;;;;;;;;;;;4919599;29;19922;-92
2023/02/01 13:31:25;;;;;;;;;;;;;;;;;;4934857;29;19937;-92
2023/02/01 13:33:51;;;;;;;;;;;;;;;;;;4935636;29;19923;-91
2023/02/01 13:36:17;;;;;;;;;;;;;;;;;;4935674;29;19974;-94
2023/02/01 13:38:43;;;;;;;;;;;;;;;;;;4941461;29;19929;-95
2023/02/01 13:41:09;;;;;;;;;;;;;;;;;;4935801;29;19927;-94
2023/02/01 13:43:38;;;;;;;;;;;;;;;;;;4935639;29;19941;-93
2023/02/01 13:46:04;;;;;;;;;;;;;;;;;;4935133;29;19923;-90
2023/02/01 13:48:30;;;;;;;;;;;;;;;;;;4918774;29;19922;-90
2023/02/01 13:50:56;;;;;;;;;;;;;;;;;;4934243;29;19950;-89
2023/02/01 13:53:22;;;;;;;;;;;;;;;;;;4918839;29;20301;-90
2023/02/01 13:55:51;;;;;;;;;;;;;;;;;;4934582;29;19931;-90
2023/02/01 13:58:19;;;;;;;;;;;;;;;;;;4933832;29;19969;-92
2023/02/01 14:00:45;;;;;;;;;;;;;;;;;;4934160;29;19923;-90
2023/02/01 14:03:15;;;;;;;;;;;;;;;;;;4934324;29;20276;-92
2023/02/01 14:05:41;;;;;;;;;;;;;;;;;;4934996;29;19945;-91
2023/02/01 14:08:07;;;;;;;;;;;;;;;;;;4935100;29;20350;-91
2023/02/01 14:10:33;;;;;;;;;;;;;;;;;;4934840;29;19926;-89
2023/02/01 14:12:59;;;;;;;;;;;;;;;;;;4934157;29;19970;-90
2023/02/01 14:15:25;;;;;;;;;;;;;;;;;;4918336;29;19922;-91
2023/02/01 14:17:51;;;;;;;;;;;;;;;;;;4933961;29;19926;-90
2023/02/01 14:20:16;;;;;;;;;;;;;;;;;;4934329;29;19922;-90
2023/02/01 14:22:42;;;;;;;;;;;;;;;;;;4933996;29;20014;-90
2023/02/01 14:25:08;;;;;;;;;;;;;;;;;;4934437;29;19923;-92
2023/02/01 14:27:34;;;;;;;;;;;;;;;;;;4934381;29;20283;-90
2023/02/01 14:30:00;;;;;;;;;;;;;;;;;;4917945;29;19923;-90
2023/02/01 14:32:26;;;;;;;;;;;;;;;;;;4933985;29;19922;-91
2023/02/01 14:34:54;;;;;;;;;;;;;;;;;;4933952;29;20012;-89
2023/02/01 14:37:26;;;;;;;;;;;;;;;;;;4934138;29;19922;-93
2023/02/01 14:39:52;;;;;;;;;;;;;;;;;;4934372;29;19931;-94
2023/02/01 14:42:18;;;;;;;;;;;;;;;;;;4934455;29;19929;-92
2023/02/01 14:44:44;;;;;;;;;;;;;;;;;;4934205;29;19923;-93
2023/02/01 14:47:10;;;;;;;;;;;;;;;;;;4934603;29;19930;-92
2023/02/01 14:49:36;;;;;;;;;;;;;;;;;;4934123;29;19978;-91
2023/02/01 14:52:05;;;;;;;;;;;;;;;;;;4934062;29;20163;-90
2023/02/01 14:54:31;;;;;;;;;;;;;;;;;;4934405;29;19923;-90
2023/02/01 14:56:57;;;;;;;;;;;;;;;;;;4933942;29;19923;-92
2023/02/01 14:59:23;;;;;;;;;;;;;;;;;;4933499;29;20335;-91
2023/02/01 15:01:49;;;;;;;;;;;;;;;;;;4932883;29;19930;-89
2023/02/01 15:04:18;;;;;;;;;;;;;;;;;;4933222;29;20371;-91
2023/02/01 15:06:44;;;;;;;;;;;;;;;;;;4934232;29;19930;-91
2023/02/01 15:09:09;;;;;;;;;;;;;;;;;;4932410;29;19923;-94
2023/02/01 15:11:37;;;;;;;;;;;;;;;;;;4934687;29;19933;-91
2023/02/01 15:14:02;;;;;;;;;;;;;;;;;;4934516;29;20018;-93
2023/02/01 15:16:28;;;;;;;;;;;;;;;;;;4933966;29;20343;-92
2023/02/01 15:18:54;;;;;;;;;;;;;;;;;;4935815;29;20366;-93
2023/02/01 15:21:20;;;;;;;;;;;;;;;;;;4934126;29;19929;-92
2023/02/01 15:23:48;;;;;;;;;;;;;;;;;;4934459;29;19930;-93
2023/02/01 15:26:14;;;;;;;;;;;;;;;;;;4934770;29;19986;-94
2023/02/01 15:28:51;;;;;;;;;;;;;;;;;;4934514;29;20302;-94
2023/02/01 15:37:23;;;;;;;;;;;;;;;;;;4889344;29;20275;-92
2023/02/01 15:39:49;;;;;;;;;;;;;;;;;;4934520;29;20009;-96
2023/02/01 15:42:19;;;;;;;;;;;;;;;;;;4935475;29;20380;-95
2023/02/01 15:44:48;;;;;;;;;;;;;;;;;;4935199;29;19930;-94
2023/02/01 15:47:14;;;;;;;;;;;;;;;;;;4935079;29;20062;-94
2023/02/01 15:52:38;;;;;;;;;;;;;;;;;;4949283;29;19938;-94
2023/02/01 15:55:10;;;;;;;;;;;;;;;;;;4918589;29;19923;-95
2023/02/01 15:57:55;;;;;;;;;;;;;;;;;;4919279;29;19922;-91
2023/02/01 16:00:22;;;;;;;;;;;;;;;;;;4934509;29;19962;-91
2023/02/01 16:02:48;;;;;;;;;;;;;;;;;;4933746;29;19923;-92
2023/02/01 16:05:16;;;;;;;;;;;;;;;;;;4933916;29;19923;-95
2023/02/01 16:07:42;;;;;;;;;;;;;;;;;;4934081;29;19930;-94
2023/02/01 16:10:08;;;;;;;;;;;;;;;;;;4933655;29;19923;-93
2023/02/01 16:12:37;;;;;;;;;;;;;;;;;;4933228;29;19954;-94
2023/02/01 16:15:03;;;;;;;;;;;;;;;;;;4938174;29;20286;-94
2023/02/01 16:17:32;;;;;;;;;;;;;;;;;;4936788;29;19923;-91
2023/02/01 16:19:58;;;;;;;;;;;;;;;;;;4936319;29;19923;-90
2023/02/01 16:22:24;;;;;;;;;;;;;;;;;;4936245;29;20334;-91
2023/02/01 16:24:50;;;;;;;;;;;;;;;;;;4920496;29;19922;-90
2023/02/01 16:27:16;;;;;;;;;;;;;;;;;;4936053;29;19923;-90
2023/02/01 16:29:42;;;;;;;;;;;;;;;;;;4935760;29;19923;-91
2023/02/01 16:32:08;;;;;;;;;;;;;;;;;;4936083;29;20223;-90
2023/02/01 16:34:35;;;;;;;;;;;;;;;;;;4937295;29;19923;-93
2023/02/01 16:37:01;;;;;;;;;;;;;;;;;;4936676;29;19942;-94
2023/02/01 16:39:28;;;;;;;;;;;;;;;;;;4936611;29;20022;-93
2023/02/01 16:41:54;;;;;;;;;;;;;;;;;;4938289;29;19923;-96
2023/02/01 16:44:25;;;;;;;;;;;;;;;;;;4936874;29;19981;-93
2023/02/01 16:47:06;;;;;;;;;;;;;;;;;;4937471;29;19926;-96
2023/02/01 16:49:35;;;;;;;;;;;;;;;;;;4941698;29;19923;-95
2023/02/01 16:52:04;;;;;;;;;;;;;;;;;;4951672;29;20291;-94
2023/02/01 16:54:33;;;;;;;;;;;;;;;;;;4936733;29;19923;-94
2023/02/01 16:57:29;;;;;;;;;;;;;;;;;;;;;
2023/02/01 16:59:50;;;;;;;;;;;;;;;;;;4919758;29;19922;-90
2023/02/01 17:02:16;;;;;;;;;;;;;;;;;;4935892;29;19923;-91
2023/02/01 17:04:42;;;;;;;;;;;;;;;;;;4936514;29;19989;-92
2023/02/01 17:07:09;;;;;;;;;;;;;;;;;;4920510;29;19966;-91
2023/02/01 17:09:35;;;;;;;;;;;;;;;;;;4935725;29;19975;-90
2023/02/01 17:12:01;;;;;;;;;;;;;;;;;;4935032;29;19978;-90
2023/02/01 17:14:27;;;;;;;;;;;;;;;;;;4935162;29;19993;-90
2023/02/01 17:16:53;;;;;;;;;;;;;;;;;;4935250;29;20266;-89
2023/02/01 17:19:22;;;;;;;;;;;;;;;;;;4935081;29;20010;-89
2023/02/01 17:21:52;;;;;;;;;;;;;;;;;;4934932;29;19974;-89
2023/02/01 17:24:18;;;;;;;;;;;;;;;;;;4934938;29;19970;-90
2023/02/01 17:26:43;;;;;;;;;;;;;;;;;;4919003;29;19938;-89
2023/02/01 17:29:09;;;;;;;;;;;;;;;;;;4934786;29;20286;-88
2023/02/01 17:31:35;;;;;;;;;;;;;;;;;;4934618;29;19927;-88
2023/02/01 17:34:01;;;;;;;;;;;;;;;;;;4935056;29;19923;-89
2023/02/01 17:36:27;;;;;;;;;;;;;;;;;;4919085;29;20084;-89
2023/02/01 17:38:53;;;;;;;;;;;;;;;;;;4918603;29;19923;-88
2023/02/01 17:41:19;;;;;;;;;;;;;;;;;;4934885;29;19923;-89
2023/02/01 17:43:45;;;;;;;;;;;;;;;;;;4935090;29;19922;-88
2023/02/01 17:46:11;;;;;;;;;;;;;;;;;;4934473;29;19945;-90
2023/02/01 17:48:37;;;;;;;;;;;;;;;;;;4918904;29;19927;-88
2023/02/01 17:51:03;;;;;;;;;;;;;;;;;;4934424;29;19927;-89
2023/02/01 17:53:29;;;;;;;;;;;;;;;;;;4934177;29;20374;-87
2023/02/01 17:55:57;;;;;;;;;;;;;;;;;;4934676;29;19930;-91
2023/02/01 17:58:23;;;;;;;;;;;;;;;;;;4934069;29;19930;-87
2023/02/01 18:00:49;;;;;;;;;;;;;;;;;;4934308;29;20286;-87
2023/02/01 18:03:14;;;;;;;;;;;;;;;;;;4918533;29;19927;-87
2023/02/01 18:05:41;;;;;;;;;;;;;;;;;;4934438;29;19923;-88
2023/02/01 18:08:07;;;;;;;;;;;;;;;;;;4934244;29;19929;-89
2023/02/01 18:10:33;;;;;;;;;;;;;;;;;;4933734;29;19926;-87
2023/02/01 18:13:00;;;;;;;;;;;;;;;;;;4933815;29;20014;-90
2023/02/01 18:15:26;;;;;;;;;;;;;;;;;;4949794;29;19967;-89
2023/02/01 18:17:52;;;;;;;;;;;;;;;;;;4934329;29;19922;-90
2023/02/01 18:20:18;;;;;;;;;;;;;;;;;;4918787;29;20322;-91
2023/02/01 18:22:47;;;;;;;;;;;;;;;;;;4916977;29;19922;-91
2023/02/01 18:25:13;;;;;;;;;;;;;;;;;;4902995;29;20029;-92
2023/02/01 18:27:39;;;;;;;;;;;;;;;;;;4902120;29;20018;-93
2023/02/01 18:30:06;;;;;;;;;;;;;;;;;;4934070;29;19957;-91
2023/02/01 18:32:41;;;;;;;;;;;;;;;;;;4937397;29;20377;-95
2023/02/01 18:35:17;;;;;;;;;;;;;;;;;;4931537;29;20114;-94
2023/02/01 18:37:43;;;;;;;;;;;;;;;;;;4899709;29;19997;-92
2023/02/01 18:40:10;;;;;;;;;;;;;;;;;;4900118;29;20015;-94
2023/02/01 18:42:38;;;;;;;;;;;;;;;;;;4903003;29;20106;-94
2023/02/01 18:45:13;;;;;;;;;;;;;;;;;;4914962;29;20014;-95
2023/02/01 18:47:58;;;;;;;;;;;;;;;;;;;;;
2023/02/01 18:53:26;;;;;;;;;;;;;;;;;;4901206;29;19923;-94
2023/02/01 18:55:51;;;;;;;;;;;;;;;;;;4900140;29;19982;-94
2023/02/01 18:58:17;;;;;;;;;;;;;;;;;;4917602;29;19922;-92
2023/02/01 19:00:43;;;;;;;;;;;;;;;;;;4902613;29;19985;-93
2023/02/01 19:03:09;;;;;;;;;;;;;;;;;;4903491;29;19923;-93
2023/02/01 19:05:40;;;;;;;;;;;;;;;;;;4905461;29;20677;-92
2023/02/01 19:08:06;;;;;;;;;;;;;;;;;;4899414;29;19923;-92
2023/02/01 19:10:33;;;;;;;;;;;;;;;;;;4899377;29;19927;-93
2023/02/01 19:12:59;;;;;;;;;;;;;;;;;;4900042;29;19923;-93
2023/02/01 19:15:28;;;;;;;;;;;;;;;;;;4899265;29;20013;-92
2023/02/01 19:17:54;;;;;;;;;;;;;;;;;;4899012;29;19991;-93
2023/02/01 19:20:20;;;;;;;;;;;;;;;;;;4899491;29;19938;-93
2023/02/01 19:22:51;;;;;;;;;;;;;;;;;;4899453;29;19958;-93
2023/02/01 19:25:20;;;;;;;;;;;;;;;;;;4899487;29;19924;-93
2023/02/01 19:27:46;;;;;;;;;;;;;;;;;;4899367;29;19923;-92
2023/02/01 19:30:12;;;;;;;;;;;;;;;;;;4898955;29;20414;-93
2023/02/01 19:32:44;;;;;;;;;;;;;;;;;;4899117;29;19923;-93
2023/02/01 19:35:18;;;;;;;;;;;;;;;;;;4915335;29;20151;-95
2023/02/01 19:40:46;;;;;;;;;;;;;;;;;;;;;
2023/02/01 20:25:19;;;;;;;;;;;;;;;;;;5268720;23;19941;-96
2023/02/01 20:28:02;;;;;;;;;;;;;;;;;;4909876;29;20010;-93
2023/02/01 20:36:25;;;;;;;;;;;;;;;;;;4880658;29;19983;-95
2023/02/01 20:38:51;;;;;;;;;;;;;;;;;;4910738;29;19950;-93
2023/02/01 20:41:19;;;;;;;;;;;;;;;;;;4924339;29;19923;-95
2023/02/01 20:43:53;;;;;;;;;;;;;;;;;;4924087;29;19927;-96
2023/02/01 21:09:50;;;;;;;;;;;;;;;;;;5631895;23;20353;-94
2023/02/01 21:12:19;;;;;;;;;;;;;;;;;;4884899;29;19927;-94
2023/02/01 21:14:45;;;;;;;;;;;;;;;;;;4884609;29;20026;-93
2023/02/01 21:17:17;;;;;;;;;;;;;;;;;;4885969;29;20362;-95
2023/02/01 21:19:43;;;;;;;;;;;;;;;;;;4871208;29;19945;-96
2023/02/01 21:24:45;;;;;;;;;;;;;;;;;;4927445;23;20279;-95
2023/02/01 21:27:21;;;;;;;;;;;;;;;;;;;;;
2023/02/01 21:29:59;;;;;;;;;;;;;;;;;;4885516;29;19955;-96
2023/02/01 21:32:35;;;;;;;;;;;;;;;;;;;;;
2023/02/01 21:35:02;;;;;;;;;;;;;;;;;;4882923;29;19924;-94
2023/02/01 21:37:28;;;;;;;;;;;;;;;;;;4866613;29;20010;-93
2023/02/01 21:39:55;;;;;;;;;;;;;;;;;;4867064;29;19978;-94
2023/02/01 21:42:23;;;;;;;;;;;;;;;;;;4867172;29;19930;-94
2023/02/01 21:44:50;;;;;;;;;;;;;;;;;;4867476;29;20012;-94
2023/02/01 21:47:16;;;;;;;;;;;;;;;;;;4867165;29;20009;-95
2023/02/01 21:49:44;;;;;;;;;;;;;;;;;;4882917;29;20026;-91
2023/02/01 21:52:10;;;;;;;;;;;;;;;;;;4867291;29;19970;-93
2023/02/01 21:54:37;;;;;;;;;;;;;;;;;;4866715;29;19955;-92
2023/02/01 21:57:12;;;;;;;;;;;;;;;;;;4867135;29;19924;-94
2023/02/01 21:59:41;;;;;;;;;;;;;;;;;;4866972;29;19923;-94
2023/02/01 22:02:08;;;;;;;;;;;;;;;;;;4866852;29;19930;-93
2023/02/01 22:04:35;;;;;;;;;;;;;;;;;;4880795;29;20391;-94
2023/02/01 22:07:01;;;;;;;;;;;;;;;;;;4866655;29;19923;-93
2023/02/01 22:09:27;;;;;;;;;;;;;;;;;;4866680;29;20324;-94
2023/02/01 22:11:53;;;;;;;;;;;;;;;;;;4865923;29;20026;-94
2023/02/01 22:14:19;;;;;;;;;;;;;;;;;;4866093;29;19931;-93
2023/02/01 22:16:45;;;;;;;;;;;;;;;;;;4866305;29;19931;-92
2023/02/01 22:19:11;;;;;;;;;;;;;;;;;;4865283;29;19923;-93
2023/02/01 22:21:40;;;;;;;;;;;;;;;;;;4865753;29;19923;-93
2023/02/01 22:24:06;;;;;;;;;;;;;;;;;;4865898;29;19928;-92
2023/02/01 22:26:32;;;;;;;;;;;;;;;;;;4865989;29;20013;-94
2023/02/01 22:29:01;;;;;;;;;;;;;;;;;;4866282;29;19923;-93
2023/02/01 22:31:27;;;;;;;;;;;;;;;;;;4866098;29;20339;-94
2023/02/01 22:33:53;;;;;;;;;;;;;;;;;;4865998;29;19923;-94
2023/02/01 22:36:24;;;;;;;;;;;;;;;;;;4866814;29;20007;-94
2023/02/01 22:38:50;;;;;;;;;;;;;;;;;;4866127;29;20027;-95
2023/02/01 22:41:16;;;;;;;;;;;;;;;;;;4865906;29;20141;-95
2023/02/01 22:43:42;;;;;;;;;;;;;;;;;;4866211;29;20018;-95
2023/02/01 22:46:08;;;;;;;;;;;;;;;;;;4866201;29;20303;-96
2023/02/01 22:48:34;;;;;;;;;;;;;;;;;;4865837;29;19931;-95
2023/02/01 22:51:03;;;;;;;;;;;;;;;;;;4865863;29;19958;-95
2023/02/01 22:53:32;;;;;;;;;;;;;;;;;;4866560;29;19923;-94
2023/02/01 22:56:07;;;;;;;;;;;;;;;;;;4865726;29;19931;-95
2023/02/01 22:58:36;;;;;;;;;;;;;;;;;;4866361;29;20357;-95
2023/02/01 23:01:02;;;;;;;;;;;;;;;;;;4866016;29;19923;-95
2023/02/01 23:03:28;;;;;;;;;;;;;;;;;;4866015;29;20284;-95
2023/02/01 23:05:54;;;;;;;;;;;;;;;;;;4865960;29;19924;-94
2023/02/01 23:08:23;;;;;;;;;;;;;;;;;;4865870;29;19934;-95
2023/02/01 23:10:49;;;;;;;;;;;;;;;;;;4865528;29;19943;-95
2023/02/01 23:13:15;;;;;;;;;;;;;;;;;;4865804;29;19924;-95
2023/02/01 23:15:41;;;;;;;;;;;;;;;;;;4865215;29;20291;-95
2023/02/01 23:18:09;;;;;;;;;;;;;;;;;;4865653;29;19932;-95
2023/02/01 23:20:38;;;;;;;;;;;;;;;;;;4865885;29;19979;-94
2023/02/01 23:23:11;;;;;;;;;;;;;;;;;;4866320;29;19928;-94
2023/02/01 23:25:40;;;;;;;;;;;;;;;;;;4869419;29;19975;-94
2023/02/01 23:28:06;;;;;;;;;;;;;;;;;;4869684;29;19923;-95
2023/02/01 23:30:32;;;;;;;;;;;;;;;;;;4869054;29;19933;-93
2023/02/01 23:32:58;;;;;;;;;;;;;;;;;;4869476;29;19923;-94
2023/02/01 23:35:24;;;;;;;;;;;;;;;;;;4869468;29;19931;-93
2023/02/01 23:37:50;;;;;;;;;;;;;;;;;;4868704;29;19927;-94
2023/02/01 23:40:16;;;;;;;;;;;;;;;;;;4868849;29;20010;-94
2023/02/01 23:43:56;;;;;;;;;;;;;;;;;;4868688;29;19971;-94
2023/02/01 23:45:28;;;;;;;;;;;;;;;;;;4884017;29;20006;-93
2023/02/01 23:47:54;;;;;;;;;;;;;;;;;;4869027;29;20058;-93
2023/02/01 23:50:20;;;;;;;;;;;;;;;;;;4868645;29;20382;-94
2023/02/01 23:53:03;;;;;;;;;;;;;;;;;;4868696;29;20309;-96
2023/02/01 23:55:29;;;;;;;;;;;;;;;;;;4869108;29;19983;-93
2023/02/01 23:57:55;;;;;;;;;;;;;;;;;;4868957;29;19924;-94
